sensor_id;sensor_type;location;lat;lon;timestamp;P1;durP1;ratioP1;P2;durP2;ratioP2
6392;SDS011;3229;42.674;23.282;2023-04-03T00:00:37;4.63;;;3.03;;
6392;SDS011;3229;42.674;23.282;2023-04-03T00:03:04;2.53;;;2.33;;
6392;SDS011;3229;42.674;23.282;2023-04-03T00:05:31;3.27;;;2.60;;
6392;SDS011;3229;42.674;23.282;2023-04-03T00:07:58;3.70;;;2.93;;
6392;SDS011;3229;42.674;23.282;2023-04-03T00:10:27;2.77;;;2.57;;
6392;SDS011;3229;42.674;23.282;2023-04-03T00:12:55;2.80;;;2.40;;
6392;SDS011;3229;42.674;23.282;2023-04-03T00:15:22;3.27;;;2.70;;
6392;SDS011;3229;42.674;23.282;2023-04-03T00:17:49;2.77;;;2.57;;
6392;SDS011;3229;42.674;23.282;2023-04-03T00:20:16;4.00;;;2.63;;
6392;SDS011;3229;42.674;23.282;2023-04-03T00:22:43;3.13;;;2.50;;
6392;SDS011;3229;42.674;23.282;2023-04-03T00:25:10;3.97;;;2.50;;
6392;SDS011;3229;42.674;23.282;2023-04-03T00:27:36;3.37;;;2.40;;
6392;SDS011;3229;42.674;23.282;2023-04-03T00:30:06;5.77;;;2.20;;
6392;SDS011;3229;42.674;23.282;2023-04-03T00:32:37;2.90;;;2.40;;
6392;SDS011;3229;42.674;23.282;2023-04-03T00:35:04;2.77;;;2.20;;
6392;SDS011;3229;42.674;23.282;2023-04-03T00:37:31;5.13;;;2.93;;
6392;SDS011;3229;42.674;23.282;2023-04-03T00:39:58;2.50;;;2.30;;
6392;SDS011;3229;42.674;23.282;2023-04-03T00:42:25;3.73;;;2.67;;
6392;SDS011;3229;42.674;23.282;2023-04-03T00:47:55;2.60;;;2.37;;
6392;SDS011;3229;42.674;23.282;2023-04-03T00:50:24;3.33;;;2.20;;
6392;SDS011;3229;42.674;23.282;2023-04-03T00:52:51;3.53;;;2.40;;
6392;SDS011;3229;42.674;23.282;2023-04-03T00:55:19;2.80;;;2.53;;
6392;SDS011;3229;42.674;23.282;2023-04-03T00:57:46;3.60;;;2.30;;
6392;SDS011;3229;42.674;23.282;2023-04-03T01:00:14;3.47;;;2.80;;
6392;SDS011;3229;42.674;23.282;2023-04-03T01:02:46;2.50;;;2.30;;
6392;SDS011;3229;42.674;23.282;2023-04-03T01:05:13;2.73;;;2.20;;
6392;SDS011;3229;42.674;23.282;2023-04-03T01:07:42;2.73;;;2.10;;
6392;SDS011;3229;42.674;23.282;2023-04-03T01:10:12;2.27;;;2.13;;
6392;SDS011;3229;42.674;23.282;2023-04-03T01:12:41;3.27;;;2.40;;
6392;SDS011;3229;42.674;23.282;2023-04-03T01:15:11;3.67;;;2.30;;
6392;SDS011;3229;42.674;23.282;2023-04-03T01:17:40;3.70;;;2.40;;
6392;SDS011;3229;42.674;23.282;2023-04-03T01:20:26;2.50;;;2.30;;
6392;SDS011;3229;42.674;23.282;2023-04-03T01:23:13;3.20;;;2.27;;
6392;SDS011;3229;42.674;23.282;2023-04-03T01:25:52;4.23;;;2.67;;
6392;SDS011;3229;42.674;23.282;2023-04-03T01:28:21;3.27;;;2.50;;
6392;SDS011;3229;42.674;23.282;2023-04-03T01:30:50;2.97;;;2.67;;
6392;SDS011;3229;42.674;23.282;2023-04-03T01:33:26;2.33;;;2.13;;
6392;SDS011;3229;42.674;23.282;2023-04-03T01:35:53;2.63;;;2.40;;
6392;SDS011;3229;42.674;23.282;2023-04-03T01:38:20;2.87;;;2.43;;
6392;SDS011;3229;42.674;23.282;2023-04-03T01:40:47;3.00;;;2.67;;
6392;SDS011;3229;42.674;23.282;2023-04-03T01:43:13;5.43;;;2.60;;
6392;SDS011;3229;42.674;23.282;2023-04-03T01:45:40;3.17;;;2.30;;
6392;SDS011;3229;42.674;23.282;2023-04-03T01:48:07;3.33;;;2.47;;
6392;SDS011;3229;42.674;23.282;2023-04-03T01:50:35;2.90;;;2.50;;
6392;SDS011;3229;42.674;23.282;2023-04-03T01:53:02;2.37;;;2.17;;
6392;SDS011;3229;42.674;23.282;2023-04-03T01:55:29;3.37;;;2.30;;
6392;SDS011;3229;42.674;23.282;2023-04-03T01:57:55;3.10;;;2.20;;
6392;SDS011;3229;42.674;23.282;2023-04-03T02:00:22;3.50;;;2.40;;
6392;SDS011;3229;42.674;23.282;2023-04-03T02:02:49;2.70;;;2.50;;
6392;SDS011;3229;42.674;23.282;2023-04-03T02:05:16;2.90;;;2.60;;
6392;SDS011;3229;42.674;23.282;2023-04-03T02:07:44;2.60;;;2.40;;
6392;SDS011;3229;42.674;23.282;2023-04-03T02:10:11;4.07;;;2.63;;
6392;SDS011;3229;42.674;23.282;2023-04-03T02:12:38;4.63;;;3.00;;
6392;SDS011;3229;42.674;23.282;2023-04-03T02:15:06;4.20;;;2.50;;
6392;SDS011;3229;42.674;23.282;2023-04-03T02:17:34;3.40;;;2.87;;
6392;SDS011;3229;42.674;23.282;2023-04-03T02:20:01;3.63;;;2.80;;
6392;SDS011;3229;42.674;23.282;2023-04-03T02:22:29;6.07;;;3.20;;
6392;SDS011;3229;42.674;23.282;2023-04-03T02:24:57;6.30;;;3.10;;
6392;SDS011;3229;42.674;23.282;2023-04-03T02:27:24;4.47;;;2.93;;
6392;SDS011;3229;42.674;23.282;2023-04-03T02:29:51;3.67;;;3.07;;
6392;SDS011;3229;42.674;23.282;2023-04-03T02:32:17;5.97;;;3.13;;
6392;SDS011;3229;42.674;23.282;2023-04-03T02:34:44;4.20;;;3.33;;
6392;SDS011;3229;42.674;23.282;2023-04-03T02:37:11;5.23;;;3.93;;
6392;SDS011;3229;42.674;23.282;2023-04-03T02:39:38;4.13;;;3.57;;
6392;SDS011;3229;42.674;23.282;2023-04-03T02:42:06;5.37;;;2.87;;
6392;SDS011;3229;42.674;23.282;2023-04-03T02:44:33;3.73;;;3.20;;
6392;SDS011;3229;42.674;23.282;2023-04-03T02:47:00;4.33;;;3.67;;
6392;SDS011;3229;42.674;23.282;2023-04-03T02:49:27;3.90;;;3.53;;
6392;SDS011;3229;42.674;23.282;2023-04-03T02:51:54;6.10;;;3.37;;
6392;SDS011;3229;42.674;23.282;2023-04-03T02:54:21;4.30;;;3.50;;
6392;SDS011;3229;42.674;23.282;2023-04-03T02:56:48;4.60;;;3.20;;
6392;SDS011;3229;42.674;23.282;2023-04-03T02:59:16;4.20;;;3.20;;
6392;SDS011;3229;42.674;23.282;2023-04-03T03:01:43;5.33;;;3.00;;
6392;SDS011;3229;42.674;23.282;2023-04-03T03:04:10;2.80;;;2.60;;
6392;SDS011;3229;42.674;23.282;2023-04-03T03:06:37;9.07;;;3.87;;
6392;SDS011;3229;42.674;23.282;2023-04-03T03:09:04;4.57;;;3.33;;
6392;SDS011;3229;42.674;23.282;2023-04-03T03:11:31;3.97;;;3.23;;
6392;SDS011;3229;42.674;23.282;2023-04-03T03:13:58;3.77;;;2.93;;
6392;SDS011;3229;42.674;23.282;2023-04-03T03:16:26;5.73;;;3.53;;
6392;SDS011;3229;42.674;23.282;2023-04-03T03:18:53;3.90;;;2.97;;
6392;SDS011;3229;42.674;23.282;2023-04-03T03:21:20;4.90;;;3.50;;
6392;SDS011;3229;42.674;23.282;2023-04-03T03:23:47;3.13;;;2.80;;
6392;SDS011;3229;42.674;23.282;2023-04-03T03:26:14;6.57;;;3.30;;
6392;SDS011;3229;42.674;23.282;2023-04-03T03:28:40;4.17;;;2.97;;
6392;SDS011;3229;42.674;23.282;2023-04-03T03:31:08;5.37;;;3.03;;
6392;SDS011;3229;42.674;23.282;2023-04-03T03:33:36;3.40;;;3.03;;
6392;SDS011;3229;42.674;23.282;2023-04-03T03:36:03;6.50;;;3.23;;
6392;SDS011;3229;42.674;23.282;2023-04-03T03:38:31;4.17;;;2.90;;
6392;SDS011;3229;42.674;23.282;2023-04-03T03:40:57;5.20;;;3.23;;
6392;SDS011;3229;42.674;23.282;2023-04-03T03:43:24;3.97;;;3.17;;
6392;SDS011;3229;42.674;23.282;2023-04-03T03:45:51;5.83;;;3.00;;
6392;SDS011;3229;42.674;23.282;2023-04-03T03:48:19;4.40;;;3.13;;
6392;SDS011;3229;42.674;23.282;2023-04-03T03:50:47;3.27;;;2.97;;
6392;SDS011;3229;42.674;23.282;2023-04-03T03:53:14;3.67;;;3.03;;
6392;SDS011;3229;42.674;23.282;2023-04-03T03:55:41;3.73;;;3.27;;
6392;SDS011;3229;42.674;23.282;2023-04-03T03:58:08;4.40;;;3.10;;
6392;SDS011;3229;42.674;23.282;2023-04-03T04:00:35;3.93;;;3.10;;
6392;SDS011;3229;42.674;23.282;2023-04-03T04:03:02;6.30;;;4.23;;
6392;SDS011;3229;42.674;23.282;2023-04-03T04:05:29;4.13;;;3.43;;
6392;SDS011;3229;42.674;23.282;2023-04-03T04:07:58;4.47;;;3.27;;
6392;SDS011;3229;42.674;23.282;2023-04-03T04:10:25;5.60;;;3.90;;
6392;SDS011;3229;42.674;23.282;2023-04-03T04:12:51;4.00;;;3.27;;
6392;SDS011;3229;42.674;23.282;2023-04-03T04:15:18;10.23;;;4.47;;
6392;SDS011;3229;42.674;23.282;2023-04-03T04:17:46;5.60;;;3.27;;
6392;SDS011;3229;42.674;23.282;2023-04-03T04:20:14;5.93;;;3.87;;
6392;SDS011;3229;42.674;23.282;2023-04-03T04:22:41;5.63;;;3.80;;
6392;SDS011;3229;42.674;23.282;2023-04-03T04:25:09;7.70;;;3.43;;
6392;SDS011;3229;42.674;23.282;2023-04-03T04:27:36;6.93;;;3.60;;
6392;SDS011;3229;42.674;23.282;2023-04-03T04:30:04;6.17;;;3.57;;
6392;SDS011;3229;42.674;23.282;2023-04-03T04:32:31;4.50;;;3.67;;
6392;SDS011;3229;42.674;23.282;2023-04-03T04:34:58;5.03;;;3.40;;
6392;SDS011;3229;42.674;23.282;2023-04-03T04:37:25;5.67;;;3.87;;
6392;SDS011;3229;42.674;23.282;2023-04-03T04:39:52;8.63;;;3.90;;
6392;SDS011;3229;42.674;23.282;2023-04-03T04:42:20;6.23;;;3.43;;
6392;SDS011;3229;42.674;23.282;2023-04-03T04:44:47;3.77;;;3.00;;
6392;SDS011;3229;42.674;23.282;2023-04-03T04:47:14;4.83;;;3.47;;
6392;SDS011;3229;42.674;23.282;2023-04-03T04:49:41;9.73;;;4.13;;
6392;SDS011;3229;42.674;23.282;2023-04-03T04:52:08;4.97;;;3.97;;
6392;SDS011;3229;42.674;23.282;2023-04-03T04:54:34;5.90;;;3.70;;
6392;SDS011;3229;42.674;23.282;2023-04-03T04:57:01;6.67;;;3.53;;
6392;SDS011;3229;42.674;23.282;2023-04-03T04:59:29;7.40;;;4.33;;
6392;SDS011;3229;42.674;23.282;2023-04-03T05:01:56;4.87;;;4.10;;
6392;SDS011;3229;42.674;23.282;2023-04-03T05:04:23;8.93;;;4.90;;
6392;SDS011;3229;42.674;23.282;2023-04-03T05:06:50;7.40;;;4.30;;
6392;SDS011;3229;42.674;23.282;2023-04-03T05:09:17;10.63;;;5.00;;
6392;SDS011;3229;42.674;23.282;2023-04-03T05:11:45;5.27;;;4.40;;
6392;SDS011;3229;42.674;23.282;2023-04-03T05:14:12;8.43;;;4.70;;
6392;SDS011;3229;42.674;23.282;2023-04-03T05:16:40;7.97;;;4.23;;
6392;SDS011;3229;42.674;23.282;2023-04-03T05:19:07;7.90;;;4.40;;
6392;SDS011;3229;42.674;23.282;2023-04-03T05:21:34;10.53;;;4.97;;
6392;SDS011;3229;42.674;23.282;2023-04-03T05:24:01;9.57;;;5.37;;
6392;SDS011;3229;42.674;23.282;2023-04-03T05:26:28;7.13;;;5.00;;
6392;SDS011;3229;42.674;23.282;2023-04-03T05:28:55;8.30;;;5.30;;
6392;SDS011;3229;42.674;23.282;2023-04-03T05:31:22;6.47;;;5.10;;
6392;SDS011;3229;42.674;23.282;2023-04-03T05:33:50;9.47;;;6.00;;
6392;SDS011;3229;42.674;23.282;2023-04-03T05:36:17;7.93;;;5.13;;
6392;SDS011;3229;42.674;23.282;2023-04-03T05:38:45;8.83;;;5.57;;
6392;SDS011;3229;42.674;23.282;2023-04-03T05:41:11;6.80;;;6.10;;
6392;SDS011;3229;42.674;23.282;2023-04-03T05:43:38;9.80;;;6.13;;
6392;SDS011;3229;42.674;23.282;2023-04-03T05:46:08;8.80;;;5.83;;
6392;SDS011;3229;42.674;23.282;2023-04-03T05:48:36;9.20;;;6.30;;
6392;SDS011;3229;42.674;23.282;2023-04-03T05:51:05;14.27;;;7.33;;
6392;SDS011;3229;42.674;23.282;2023-04-03T05:53:33;18.20;;;9.33;;
6392;SDS011;3229;42.674;23.282;2023-04-03T05:56:02;14.10;;;9.10;;
6392;SDS011;3229;42.674;23.282;2023-04-03T05:58:29;22.33;;;9.87;;
6392;SDS011;3229;42.674;23.282;2023-04-03T06:00:56;13.57;;;9.23;;
6392;SDS011;3229;42.674;23.282;2023-04-03T06:03:23;13.93;;;9.07;;
6392;SDS011;3229;42.674;23.282;2023-04-03T06:05:50;13.53;;;8.53;;
6392;SDS011;3229;42.674;23.282;2023-04-03T06:08:19;12.47;;;7.23;;
6392;SDS011;3229;42.674;23.282;2023-04-03T06:10:46;14.10;;;8.30;;
6392;SDS011;3229;42.674;23.282;2023-04-03T06:13:13;15.33;;;8.43;;
6392;SDS011;3229;42.674;23.282;2023-04-03T06:15:40;14.10;;;8.53;;
6392;SDS011;3229;42.674;23.282;2023-04-03T06:18:06;16.57;;;8.23;;
6392;SDS011;3229;42.674;23.282;2023-04-03T06:20:33;14.47;;;7.77;;
6392;SDS011;3229;42.674;23.282;2023-04-03T06:23:00;14.27;;;7.83;;
6392;SDS011;3229;42.674;23.282;2023-04-03T06:25:28;11.47;;;7.77;;
6392;SDS011;3229;42.674;23.282;2023-04-03T06:27:56;13.17;;;7.50;;
6392;SDS011;3229;42.674;23.282;2023-04-03T06:30:23;11.90;;;7.73;;
6392;SDS011;3229;42.674;23.282;2023-04-03T06:32:50;9.73;;;7.90;;
6392;SDS011;3229;42.674;23.282;2023-04-03T06:35:17;15.30;;;8.90;;
6392;SDS011;3229;42.674;23.282;2023-04-03T06:37:44;12.97;;;8.13;;
6392;SDS011;3229;42.674;23.282;2023-04-03T06:40:12;14.80;;;7.47;;
6392;SDS011;3229;42.674;23.282;2023-04-03T06:42:46;12.80;;;7.00;;
6392;SDS011;3229;42.674;23.282;2023-04-03T06:45:14;10.93;;;6.63;;
6392;SDS011;3229;42.674;23.282;2023-04-03T06:47:41;13.20;;;6.80;;
6392;SDS011;3229;42.674;23.282;2023-04-03T06:50:09;9.73;;;7.07;;
6392;SDS011;3229;42.674;23.282;2023-04-03T06:52:36;11.20;;;6.47;;
6392;SDS011;3229;42.674;23.282;2023-04-03T06:55:05;16.47;;;6.63;;
6392;SDS011;3229;42.674;23.282;2023-04-03T06:57:32;9.90;;;6.43;;
6392;SDS011;3229;42.674;23.282;2023-04-03T07:00:00;10.50;;;6.20;;
6392;SDS011;3229;42.674;23.282;2023-04-03T07:02:28;9.10;;;5.80;;
6392;SDS011;3229;42.674;23.282;2023-04-03T07:04:55;7.80;;;5.47;;
6392;SDS011;3229;42.674;23.282;2023-04-03T07:07:22;9.40;;;5.63;;
6392;SDS011;3229;42.674;23.282;2023-04-03T07:09:49;10.43;;;5.13;;
6392;SDS011;3229;42.674;23.282;2023-04-03T07:12:16;6.10;;;4.93;;
6392;SDS011;3229;42.674;23.282;2023-04-03T07:14:43;8.93;;;5.17;;
6392;SDS011;3229;42.674;23.282;2023-04-03T07:17:11;7.73;;;5.40;;
6392;SDS011;3229;42.674;23.282;2023-04-03T07:19:38;6.70;;;5.13;;
6392;SDS011;3229;42.674;23.282;2023-04-03T07:22:05;9.03;;;4.57;;
6392;SDS011;3229;42.674;23.282;2023-04-03T07:24:32;6.77;;;4.57;;
6392;SDS011;3229;42.674;23.282;2023-04-03T07:27:00;6.70;;;4.37;;
6392;SDS011;3229;42.674;23.282;2023-04-03T07:29:27;6.80;;;4.40;;
6392;SDS011;3229;42.674;23.282;2023-04-03T07:31:55;9.17;;;5.03;;
6392;SDS011;3229;42.674;23.282;2023-04-03T07:34:23;5.93;;;4.10;;
6392;SDS011;3229;42.674;23.282;2023-04-03T07:36:50;7.33;;;4.50;;
6392;SDS011;3229;42.674;23.282;2023-04-03T07:39:17;7.67;;;3.80;;
6392;SDS011;3229;42.674;23.282;2023-04-03T07:41:44;11.10;;;4.40;;
6392;SDS011;3229;42.674;23.282;2023-04-03T07:44:11;4.13;;;3.57;;
6392;SDS011;3229;42.674;23.282;2023-04-03T07:46:38;6.17;;;3.90;;
6392;SDS011;3229;42.674;23.282;2023-04-03T07:49:05;4.63;;;3.73;;
6392;SDS011;3229;42.674;23.282;2023-04-03T07:51:33;6.23;;;3.57;;
6392;SDS011;3229;42.674;23.282;2023-04-03T07:54:01;8.13;;;4.53;;
6392;SDS011;3229;42.674;23.282;2023-04-03T07:56:27;8.40;;;4.00;;
6392;SDS011;3229;42.674;23.282;2023-04-03T07:58:54;6.17;;;4.27;;
6392;SDS011;3229;42.674;23.282;2023-04-03T08:01:21;4.90;;;3.40;;
6392;SDS011;3229;42.674;23.282;2023-04-03T08:03:48;4.93;;;4.43;;
6392;SDS011;3229;42.674;23.282;2023-04-03T08:06:15;4.57;;;3.33;;
6392;SDS011;3229;42.674;23.282;2023-04-03T08:08:44;4.63;;;3.60;;
6392;SDS011;3229;42.674;23.282;2023-04-03T08:11:11;8.80;;;3.60;;
6392;SDS011;3229;42.674;23.282;2023-04-03T08:13:38;6.77;;;3.57;;
6392;SDS011;3229;42.674;23.282;2023-04-03T08:16:07;5.40;;;3.77;;
6392;SDS011;3229;42.674;23.282;2023-04-03T08:18:36;4.47;;;3.90;;
6392;SDS011;3229;42.674;23.282;2023-04-03T08:21:07;4.00;;;3.60;;
6392;SDS011;3229;42.674;23.282;2023-04-03T08:23:34;4.90;;;3.70;;
6392;SDS011;3229;42.674;23.282;2023-04-03T08:26:13;5.93;;;3.63;;
6392;SDS011;3229;42.674;23.282;2023-04-03T08:28:42;4.73;;;3.83;;
6392;SDS011;3229;42.674;23.282;2023-04-03T08:31:09;4.37;;;3.63;;
6392;SDS011;3229;42.674;23.282;2023-04-03T08:33:38;5.50;;;4.20;;
6392;SDS011;3229;42.674;23.282;2023-04-03T08:36:07;9.37;;;3.70;;
6392;SDS011;3229;42.674;23.282;2023-04-03T08:38:42;4.27;;;3.87;;
6392;SDS011;3229;42.674;23.282;2023-04-03T08:41:13;4.20;;;3.27;;
6392;SDS011;3229;42.674;23.282;2023-04-03T08:43:46;6.23;;;3.80;;
6392;SDS011;3229;42.674;23.282;2023-04-03T08:46:24;4.63;;;3.40;;
6392;SDS011;3229;42.674;23.282;2023-04-03T08:49:02;3.90;;;3.50;;
6392;SDS011;3229;42.674;23.282;2023-04-03T08:51:31;6.33;;;4.13;;
6392;SDS011;3229;42.674;23.282;2023-04-03T08:53:59;8.97;;;4.23;;
6392;SDS011;3229;42.674;23.282;2023-04-03T08:56:32;8.70;;;4.50;;
6392;SDS011;3229;42.674;23.282;2023-04-03T08:59:00;5.33;;;4.33;;
6392;SDS011;3229;42.674;23.282;2023-04-03T09:01:33;5.43;;;4.47;;
6392;SDS011;3229;42.674;23.282;2023-04-03T09:04:02;10.93;;;5.20;;
6392;SDS011;3229;42.674;23.282;2023-04-03T09:06:36;7.03;;;4.73;;
6392;SDS011;3229;42.674;23.282;2023-04-03T09:09:07;7.60;;;4.70;;
6392;SDS011;3229;42.674;23.282;2023-04-03T09:11:44;6.17;;;4.50;;
6392;SDS011;3229;42.674;23.282;2023-04-03T09:14:18;7.50;;;5.03;;
6392;SDS011;3229;42.674;23.282;2023-04-03T09:16:53;13.13;;;5.97;;
6392;SDS011;3229;42.674;23.282;2023-04-03T09:19:24;6.83;;;5.23;;
6392;SDS011;3229;42.674;23.282;2023-04-03T09:22:03;7.77;;;5.80;;
6392;SDS011;3229;42.674;23.282;2023-04-03T09:24:38;9.70;;;5.75;;
6392;SDS011;3229;42.674;23.282;2023-04-03T09:27:09;10.20;;;5.80;;
6392;SDS011;3229;42.674;23.282;2023-04-03T09:29:38;8.23;;;5.37;;
6392;SDS011;3229;42.674;23.282;2023-04-03T09:32:12;11.50;;;5.33;;
6392;SDS011;3229;42.674;23.282;2023-04-03T09:34:47;8.23;;;5.87;;
6392;SDS011;3229;42.674;23.282;2023-04-03T09:40:03;13.13;;;6.00;;
6392;SDS011;3229;42.674;23.282;2023-04-03T09:42:33;9.50;;;5.95;;
6392;SDS011;3229;42.674;23.282;2023-04-03T09:45:20;7.60;;;5.53;;
6392;SDS011;3229;42.674;23.282;2023-04-03T09:47:50;7.37;;;5.73;;
6392;SDS011;3229;42.674;23.282;2023-04-03T09:50:32;15.23;;;6.28;;
6392;SDS011;3229;42.674;23.282;2023-04-03T09:52:59;6.22;;;4.57;;
6392;SDS011;3229;42.674;23.282;2023-04-03T09:55:33;9.25;;;5.32;;
6392;SDS011;3229;42.674;23.282;2023-04-03T09:58:22;6.68;;;4.20;;
6392;SDS011;3229;42.674;23.282;2023-04-03T10:00:53;6.35;;;4.78;;
6392;SDS011;3229;42.674;23.282;2023-04-03T10:03:23;9.43;;;4.40;;
6392;SDS011;3229;42.674;23.282;2023-04-03T10:05:52;5.53;;;4.40;;
6392;SDS011;3229;42.674;23.282;2023-04-03T10:08:21;7.70;;;4.65;;
6392;SDS011;3229;42.674;23.282;2023-04-03T10:11:05;5.70;;;4.00;;
6392;SDS011;3229;42.674;23.282;2023-04-03T10:13:36;6.50;;;3.90;;
6392;SDS011;3229;42.674;23.282;2023-04-03T10:16:17;6.07;;;3.97;;
6392;SDS011;3229;42.674;23.282;2023-04-03T10:18:49;5.13;;;4.20;;
6392;SDS011;3229;42.674;23.282;2023-04-03T10:21:28;4.97;;;3.77;;
6392;SDS011;3229;42.674;23.282;2023-04-03T10:24:04;7.07;;;3.83;;
6392;SDS011;3229;42.674;23.282;2023-04-03T10:26:38;6.50;;;3.90;;
6392;SDS011;3229;42.674;23.282;2023-04-03T10:29:15;6.70;;;3.73;;
6392;SDS011;3229;42.674;23.282;2023-04-03T10:31:50;4.23;;;3.50;;
6392;SDS011;3229;42.674;23.282;2023-04-03T10:34:26;4.37;;;3.90;;
6392;SDS011;3229;42.674;23.282;2023-04-03T10:36:58;4.03;;;3.57;;
6392;SDS011;3229;42.674;23.282;2023-04-03T10:39:32;5.43;;;3.63;;
6392;SDS011;3229;42.674;23.282;2023-04-03T10:42:07;7.77;;;4.13;;
6392;SDS011;3229;42.674;23.282;2023-04-03T10:44:43;4.20;;;3.20;;
6392;SDS011;3229;42.674;23.282;2023-04-03T10:47:21;4.57;;;3.43;;
6392;SDS011;3229;42.674;23.282;2023-04-03T10:49:55;5.73;;;3.73;;
6392;SDS011;3229;42.674;23.282;2023-04-03T10:52:29;5.20;;;3.23;;
6392;SDS011;3229;42.674;23.282;2023-04-03T10:55:06;4.70;;;3.20;;
6392;SDS011;3229;42.674;23.282;2023-04-03T10:57:43;6.83;;;3.53;;
6392;SDS011;3229;42.674;23.282;2023-04-03T11:00:15;8.47;;;3.50;;
6392;SDS011;3229;42.674;23.282;2023-04-03T11:02:48;4.57;;;3.23;;
6392;SDS011;3229;42.674;23.282;2023-04-03T11:05:20;3.70;;;3.30;;
6392;SDS011;3229;42.674;23.282;2023-04-03T11:07:56;4.63;;;2.87;;
6392;SDS011;3229;42.674;23.282;2023-04-03T11:10:31;5.23;;;3.03;;
6392;SDS011;3229;42.674;23.282;2023-04-03T11:13:07;4.27;;;2.77;;
6392;SDS011;3229;42.674;23.282;2023-04-03T11:15:40;4.43;;;2.40;;
6392;SDS011;3229;42.674;23.282;2023-04-03T11:18:10;3.10;;;2.80;;
6392;SDS011;3229;42.674;23.282;2023-04-03T11:20:41;3.13;;;2.80;;
6392;SDS011;3229;42.674;23.282;2023-04-03T11:23:15;3.00;;;2.70;;
6392;SDS011;3229;42.674;23.282;2023-04-03T11:25:50;5.13;;;2.50;;
6392;SDS011;3229;42.674;23.282;2023-04-03T11:28:20;2.63;;;2.33;;
6392;SDS011;3229;42.674;23.282;2023-04-03T11:30:49;3.20;;;2.80;;
6392;SDS011;3229;42.674;23.282;2023-04-03T11:33:23;3.30;;;2.70;;
6392;SDS011;3229;42.674;23.282;2023-04-03T11:35:57;4.33;;;2.63;;
6392;SDS011;3229;42.674;23.282;2023-04-03T11:38:30;3.33;;;2.93;;
6392;SDS011;3229;42.674;23.282;2023-04-03T11:41:01;3.90;;;2.73;;
6392;SDS011;3229;42.674;23.282;2023-04-03T11:43:29;2.60;;;2.40;;
6392;SDS011;3229;42.674;23.282;2023-04-03T11:45:59;3.77;;;2.87;;
6392;SDS011;3229;42.674;23.282;2023-04-03T12:00:47;2.73;;;2.53;;
6392;SDS011;3229;42.674;23.282;2023-04-03T12:09:56;3.93;;;2.50;;
6392;SDS011;3229;42.674;23.282;2023-04-03T12:12:35;5.57;;;2.73;;
6392;SDS011;3229;42.674;23.282;2023-04-03T12:15:21;2.97;;;2.37;;
6392;SDS011;3229;42.674;23.282;2023-04-03T12:17:51;3.20;;;2.70;;
6392;SDS011;3229;42.674;23.282;2023-04-03T12:23:23;5.00;;;2.43;;
6392;SDS011;3229;42.674;23.282;2023-04-03T12:26:02;4.63;;;2.50;;
6392;SDS011;3229;42.674;23.282;2023-04-03T12:28:36;2.60;;;2.37;;
6392;SDS011;3229;42.674;23.282;2023-04-03T12:31:05;2.47;;;2.20;;
6392;SDS011;3229;42.674;23.282;2023-04-03T12:33:38;4.33;;;2.57;;
6392;SDS011;3229;42.674;23.282;2023-04-03T12:36:23;2.37;;;2.17;;
6392;SDS011;3229;42.674;23.282;2023-04-03T12:39:01;4.00;;;2.67;;
6392;SDS011;3229;42.674;23.282;2023-04-03T12:41:38;2.13;;;2.03;;
6392;SDS011;3229;42.674;23.282;2023-04-03T12:47:19;2.73;;;2.53;;
6392;SDS011;3229;42.674;23.282;2023-04-03T12:49:50;2.70;;;2.50;;
6392;SDS011;3229;42.674;23.282;2023-04-03T12:52:19;4.53;;;2.50;;
6392;SDS011;3229;42.674;23.282;2023-04-03T12:54:54;2.53;;;2.33;;
6392;SDS011;3229;42.674;23.282;2023-04-03T12:57:25;3.13;;;2.60;;
6392;SDS011;3229;42.674;23.282;2023-04-03T12:59:52;5.90;;;2.40;;
6392;SDS011;3229;42.674;23.282;2023-04-03T13:02:21;2.53;;;2.33;;
6392;SDS011;3229;42.674;23.282;2023-04-03T13:04:50;5.67;;;2.70;;
6392;SDS011;3229;42.674;23.282;2023-04-03T13:07:22;2.80;;;2.50;;
6392;SDS011;3229;42.674;23.282;2023-04-03T13:10:00;2.37;;;2.13;;
6392;SDS011;3229;42.674;23.282;2023-04-03T13:12:32;3.60;;;2.43;;
6392;SDS011;3229;42.674;23.282;2023-04-03T13:15:00;2.53;;;2.30;;
6392;SDS011;3229;42.674;23.282;2023-04-03T13:17:30;2.63;;;2.43;;
6392;SDS011;3229;42.674;23.282;2023-04-03T13:20:08;3.70;;;2.37;;
6392;SDS011;3229;42.674;23.282;2023-04-03T13:22:38;3.40;;;2.60;;
6392;SDS011;3229;42.674;23.282;2023-04-03T13:25:10;3.10;;;2.60;;
6392;SDS011;3229;42.674;23.282;2023-04-03T13:27:40;2.77;;;2.10;;
6392;SDS011;3229;42.674;23.282;2023-04-03T13:30:17;3.87;;;2.40;;
6392;SDS011;3229;42.674;23.282;2023-04-03T13:32:47;3.43;;;2.50;;
6392;SDS011;3229;42.674;23.282;2023-04-03T13:35:25;3.60;;;2.90;;
6392;SDS011;3229;42.674;23.282;2023-04-03T13:37:54;4.40;;;2.80;;
6392;SDS011;3229;42.674;23.282;2023-04-03T13:40:22;4.33;;;2.93;;
6392;SDS011;3229;42.674;23.282;2023-04-03T13:42:59;2.70;;;2.50;;
6392;SDS011;3229;42.674;23.282;2023-04-03T13:45:28;3.13;;;2.83;;
6392;SDS011;3229;42.674;23.282;2023-04-03T13:48:08;2.83;;;2.53;;
6392;SDS011;3229;42.674;23.282;2023-04-03T13:50:58;2.97;;;2.60;;
6392;SDS011;3229;42.674;23.282;2023-04-03T13:53:27;3.97;;;3.00;;
6392;SDS011;3229;42.674;23.282;2023-04-03T13:55:58;2.37;;;2.23;;
6392;SDS011;3229;42.674;23.282;2023-04-03T13:58:32;5.83;;;3.20;;
6392;SDS011;3229;42.674;23.282;2023-04-03T14:01:05;4.10;;;2.87;;
6392;SDS011;3229;42.674;23.282;2023-04-03T14:03:39;5.20;;;2.83;;
6392;SDS011;3229;42.674;23.282;2023-04-03T14:06:10;3.77;;;2.63;;
6392;SDS011;3229;42.674;23.282;2023-04-03T14:08:39;3.87;;;2.97;;
6392;SDS011;3229;42.674;23.282;2023-04-03T14:11:08;6.20;;;2.57;;
6392;SDS011;3229;42.674;23.282;2023-04-03T14:13:40;4.03;;;3.07;;
6392;SDS011;3229;42.674;23.282;2023-04-03T14:16:07;5.87;;;2.67;;
6392;SDS011;3229;42.674;23.282;2023-04-03T14:18:34;3.80;;;2.97;;
6392;SDS011;3229;42.674;23.282;2023-04-03T14:21:01;3.27;;;2.83;;
6392;SDS011;3229;42.674;23.282;2023-04-03T14:23:28;3.87;;;2.70;;
6392;SDS011;3229;42.674;23.282;2023-04-03T14:25:55;3.83;;;2.87;;
6392;SDS011;3229;42.674;23.282;2023-04-03T14:28:22;3.57;;;2.50;;
6392;SDS011;3229;42.674;23.282;2023-04-03T14:30:51;3.93;;;2.43;;
6392;SDS011;3229;42.674;23.282;2023-04-03T14:33:19;3.00;;;2.47;;
6392;SDS011;3229;42.674;23.282;2023-04-03T14:35:47;4.80;;;2.97;;
6392;SDS011;3229;42.674;23.282;2023-04-03T14:38:20;3.70;;;2.60;;
6392;SDS011;3229;42.674;23.282;2023-04-03T14:40:51;3.03;;;2.70;;
6392;SDS011;3229;42.674;23.282;2023-04-03T14:43:18;3.50;;;2.60;;
6392;SDS011;3229;42.674;23.282;2023-04-03T14:45:46;3.20;;;2.80;;
6392;SDS011;3229;42.674;23.282;2023-04-03T14:48:17;3.87;;;2.90;;
6392;SDS011;3229;42.674;23.282;2023-04-03T14:50:46;3.00;;;2.50;;
6392;SDS011;3229;42.674;23.282;2023-04-03T14:53:14;3.13;;;2.50;;
6392;SDS011;3229;42.674;23.282;2023-04-03T14:55:42;4.80;;;2.70;;
6392;SDS011;3229;42.674;23.282;2023-04-03T14:58:14;2.70;;;2.50;;
6392;SDS011;3229;42.674;23.282;2023-04-03T15:00:42;3.40;;;2.50;;
6392;SDS011;3229;42.674;23.282;2023-04-03T15:03:12;3.30;;;2.50;;
6392;SDS011;3229;42.674;23.282;2023-04-03T15:05:42;2.60;;;2.40;;
6392;SDS011;3229;42.674;23.282;2023-04-03T15:08:17;3.50;;;2.47;;
6392;SDS011;3229;42.674;23.282;2023-04-03T15:10:46;3.13;;;2.57;;
6392;SDS011;3229;42.674;23.282;2023-04-03T15:13:13;2.63;;;2.40;;
6392;SDS011;3229;42.674;23.282;2023-04-03T15:15:41;2.60;;;2.40;;
6392;SDS011;3229;42.674;23.282;2023-04-03T15:18:10;2.53;;;2.33;;
6392;SDS011;3229;42.674;23.282;2023-04-03T15:20:43;4.63;;;2.70;;
6392;SDS011;3229;42.674;23.282;2023-04-03T15:23:11;4.50;;;2.87;;
6392;SDS011;3229;42.674;23.282;2023-04-03T15:25:40;3.07;;;2.37;;
6392;SDS011;3229;42.674;23.282;2023-04-03T15:28:08;2.93;;;2.20;;
6392;SDS011;3229;42.674;23.282;2023-04-03T15:30:38;3.20;;;2.50;;
6392;SDS011;3229;42.674;23.282;2023-04-03T15:33:06;2.43;;;2.23;;
6392;SDS011;3229;42.674;23.282;2023-04-03T15:35:33;3.13;;;2.83;;
6392;SDS011;3229;42.674;23.282;2023-04-03T15:38:01;2.70;;;2.50;;
6392;SDS011;3229;42.674;23.282;2023-04-03T15:40:28;2.77;;;2.57;;
6392;SDS011;3229;42.674;23.282;2023-04-03T15:42:55;3.10;;;2.33;;
6392;SDS011;3229;42.674;23.282;2023-04-03T15:45:21;3.00;;;2.70;;